sensor_id;sensor_type;location;lat;lon;timestamp;pressure;altitude;pressure_sealevel;temperature;humidity
30021;BME280;16861;52.294;7.760;2022-08-01T00:00:01;99736.75;;;21.67;69.51
30021;BME280;16861;52.294;7.760;2022-08-01T00:02:30;99730.09;;;21.63;69.70
30021;BME280;16861;52.294;7.760;2022-08-01T00:04:57;99736.56;;;21.60;69.79
30021;BME280;16861;52.294;7.760;2022-08-01T00:07:24;99733.22;;;21.58;69.68
30021;BME280;16861;52.294;7.760;2022-08-01T00:09:51;99732.53;;;21.56;69.91
30021;BME280;16861;52.294;7.760;2022-08-01T00:12:18;99733.53;;;21.55;69.97
30021;BME280;16861;52.294;7.760;2022-08-01T00:14:44;99733.53;;;21.55;70.02
30021;BME280;16861;52.294;7.760;2022-08-01T00:17:11;99734.53;;;21.54;70.00
30021;BME280;16861;52.294;7.760;2022-08-01T00:19:38;99737.22;;;21.54;70.09
30021;BME280;16861;52.294;7.760;2022-08-01T00:22:04;99743.59;;;21.53;70.14
30021;BME280;16861;52.294;7.760;2022-08-01T00:24:31;99740.06;;;21.52;70.05
30021;BME280;16861;52.294;7.760;2022-08-01T00:26:58;99741.72;;;21.53;70.02
30021;BME280;16861;52.294;7.760;2022-08-01T00:29:25;99746.41;;;21.51;70.15
30021;BME280;16861;52.294;7.760;2022-08-01T00:32:11;99749.09;;;21.51;70.14
30021;BME280;16861;52.294;7.760;2022-08-01T00:34:38;99750.09;;;21.50;70.09
30021;BME280;16861;52.294;7.760;2022-08-01T00:37:05;99753.59;;;21.51;70.06
30021;BME280;16861;52.294;7.760;2022-08-01T00:39:31;99757.28;;;21.50;69.84
30021;BME280;16861;52.294;7.760;2022-08-01T00:42:01;99755.63;;;21.48;70.26
30021;BME280;16861;52.294;7.760;2022-08-01T00:44:32;99755.63;;;21.48;70.07
30021;BME280;16861;52.294;7.760;2022-08-01T00:46:59;99751.25;;;21.47;70.12
30021;BME280;16861;52.294;7.760;2022-08-01T00:49:25;99757.59;;;21.46;70.22
30021;BME280;16861;52.294;7.760;2022-08-01T00:51:53;99757.59;;;21.46;70.20
30021;BME280;16861;52.294;7.760;2022-08-01T00:54:21;99763.97;;;21.45;70.22
30021;BME280;16861;52.294;7.760;2022-08-01T00:56:48;99765.63;;;21.46;70.10
30021;BME280;16861;52.294;7.760;2022-08-01T00:59:17;99754.25;;;21.44;70.21
30021;BME280;16861;52.294;7.760;2022-08-01T01:01:45;99759.59;;;21.44;70.22
30021;BME280;16861;52.294;7.760;2022-08-01T01:04:16;99759.75;;;21.43;70.15
30021;BME280;16861;52.294;7.760;2022-08-01T01:06:57;99757.53;;;21.38;70.60
30021;BME280;16861;52.294;7.760;2022-08-01T01:09:46;99758.91;;;21.42;69.92
30021;BME280;16861;52.294;7.760;2022-08-01T01:15:18;99764.75;;;21.38;70.28
30021;BME280;16861;52.294;7.760;2022-08-01T01:20:24;99763.91;;;21.37;70.20
30021;BME280;16861;52.294;7.760;2022-08-01T01:28:04;99767.91;;;21.33;70.90
30021;BME280;16861;52.294;7.760;2022-08-01T01:30:36;99763.91;;;21.37;70.29
30021;BME280;16861;52.294;7.760;2022-08-01T01:33:06;99767.44;;;21.38;70.37
30021;BME280;16861;52.294;7.760;2022-08-01T01:35:39;99770.13;;;21.38;70.66
30021;BME280;16861;52.294;7.760;2022-08-01T01:40:43;99766.28;;;21.40;70.37
30021;BME280;16861;52.294;7.760;2022-08-01T01:43:12;99775.16;;;21.41;70.28
30021;BME280;16861;52.294;7.760;2022-08-01T01:45:40;99771.47;;;21.42;70.33
30021;BME280;16861;52.294;7.760;2022-08-01T01:48:09;99770.63;;;21.41;70.45
30021;BME280;16861;52.294;7.760;2022-08-01T01:50:38;99774.31;;;21.40;70.33
30021;BME280;16861;52.294;7.760;2022-08-01T01:53:06;99770.63;;;21.41;70.54
30021;BME280;16861;52.294;7.760;2022-08-01T01:55:41;99771.63;;;21.40;70.43
30021;BME280;16861;52.294;7.760;2022-08-01T01:58:17;99776.84;;;21.42;70.56
30021;BME280;16861;52.294;7.760;2022-08-01T02:00:46;99775.97;;;21.41;70.46
30021;BME280;16861;52.294;7.760;2022-08-01T02:03:17;99778.66;;;21.41;70.52
30021;BME280;16861;52.294;7.760;2022-08-01T02:05:45;99771.47;;;21.42;70.50
30021;BME280;16861;52.294;7.760;2022-08-01T02:08:15;99771.31;;;21.43;70.59
30021;BME280;16861;52.294;7.760;2022-08-01T02:10:44;99766.13;;;21.42;70.74
30021;BME280;16861;52.294;7.760;2022-08-01T02:13:34;99765.13;;;21.43;70.56
30021;BME280;16861;52.294;7.760;2022-08-01T02:16:03;99767.78;;;21.43;70.30
30021;BME280;16861;52.294;7.760;2022-08-01T02:18:32;99757.94;;;21.43;70.46
30021;BME280;16861;52.294;7.760;2022-08-01T02:21:00;99757.09;;;21.43;70.49
30021;BME280;16861;52.294;7.760;2022-08-01T02:23:36;99758.09;;;21.42;70.84
30021;BME280;16861;52.294;7.760;2022-08-01T02:26:04;99768.66;;;21.43;70.50
30021;BME280;16861;52.294;7.760;2022-08-01T02:28:59;99758.59;;;21.45;70.55
30021;BME280;16861;52.294;7.760;2022-08-01T02:31:30;99757.28;;;21.50;70.23
30021;BME280;16861;52.294;7.760;2022-08-01T02:34:02;99759.31;;;21.47;70.51
30021;BME280;16861;52.294;7.760;2022-08-01T02:36:33;99767.50;;;21.46;70.39
30021;BME280;16861;52.294;7.760;2022-08-01T02:39:07;99770.31;;;21.44;70.82
30021;BME280;16861;52.294;7.760;2022-08-01T02:41:41;99765.97;;;21.43;70.62
30021;BME280;16861;52.294;7.760;2022-08-01T02:44:10;99765.78;;;21.45;70.45
30021;BME280;16861;52.294;7.760;2022-08-01T02:46:45;99769.47;;;21.44;70.67
30021;BME280;16861;52.294;7.760;2022-08-01T02:49:16;99775.66;;;21.44;70.57
30021;BME280;16861;52.294;7.760;2022-08-01T02:51:46;99767.78;;;21.43;70.43
30021;BME280;16861;52.294;7.760;2022-08-01T02:54:15;99771.31;;;21.43;70.70
30021;BME280;16861;52.294;7.760;2022-08-01T02:56:44;99774.81;;;21.44;70.76
30021;BME280;16861;52.294;7.760;2022-08-01T02:59:16;99771.31;;;21.43;70.75
30021;BME280;16861;52.294;7.760;2022-08-01T03:01:48;99780.03;;;21.45;70.64
30021;BME280;16861;52.294;7.760;2022-08-01T03:04:17;99779.03;;;21.46;70.64
30021;BME280;16861;52.294;7.760;2022-08-01T03:06:46;99776.34;;;21.46;70.47
30021;BME280;16861;52.294;7.760;2022-08-01T03:09:14;99786.06;;;21.47;70.59
30021;BME280;16861;52.294;7.760;2022-08-01T03:11:43;99782.38;;;21.48;70.35
30021;BME280;16861;52.294;7.760;2022-08-01T03:14:11;99780.72;;;21.47;70.30
30021;BME280;16861;52.294;7.760;2022-08-01T03:16:41;99786.22;;;21.46;70.31
30021;BME280;16861;52.294;7.760;2022-08-01T03:19:11;99788.06;;;21.45;70.08
30021;BME280;16861;52.294;7.760;2022-08-01T03:21:39;99781.84;;;21.45;70.23
30021;BME280;16861;52.294;7.760;2022-08-01T03:24:08;99782.84;;;21.44;70.37
30021;BME280;16861;52.294;7.760;2022-08-01T03:26:36;99795.41;;;21.43;70.27
30021;BME280;16861;52.294;7.760;2022-08-01T03:29:06;99786.53;;;21.43;70.32
30021;BME280;16861;52.294;7.760;2022-08-01T03:31:37;99791.03;;;21.42;70.32
30021;BME280;16861;52.294;7.760;2022-08-01T03:34:05;99791.22;;;21.41;70.34
30021;BME280;16861;52.294;7.760;2022-08-01T03:36:32;99801.94;;;21.41;70.45
30021;BME280;16861;52.294;7.760;2022-08-01T03:39:03;99795.72;;;21.40;70.43
30021;BME280;16861;52.294;7.760;2022-08-01T03:41:39;99793.34;;;21.37;70.57
30021;BME280;16861;52.294;7.760;2022-08-01T03:44:18;99788.16;;;21.35;70.41
30021;BME280;16861;52.294;7.760;2022-08-01T03:46:48;99782.66;;;21.37;70.13
30021;BME280;16861;52.294;7.760;2022-08-01T03:49:30;99793.66;;;21.34;70.47
30021;BME280;16861;52.294;7.760;2022-08-01T03:52:01;99793.50;;;21.35;70.28
30021;BME280;16861;52.294;7.760;2022-08-01T03:54:31;99799.72;;;21.36;70.13
30021;BME280;16861;52.294;7.760;2022-08-01T03:57:00;99798.03;;;21.35;70.25
30021;BME280;16861;52.294;7.760;2022-08-01T03:59:29;99798.03;;;21.35;70.29
30021;BME280;16861;52.294;7.760;2022-08-01T04:01:57;99798.03;;;21.35;70.48
30021;BME280;16861;52.294;7.760;2022-08-01T04:04:24;99798.03;;;21.35;70.26
30021;BME280;16861;52.294;7.760;2022-08-01T04:06:51;99807.75;;;21.36;70.38
30021;BME280;16861;52.294;7.760;2022-08-01T04:09:21;99797.03;;;21.36;70.61
30021;BME280;16861;52.294;7.760;2022-08-01T04:11:48;99798.72;;;21.37;70.33
30021;BME280;16861;52.294;7.760;2022-08-01T04:14:15;99804.75;;;21.39;70.27
30021;BME280;16861;52.294;7.760;2022-08-01T04:16:41;99808.25;;;21.40;70.23
30021;BME280;16861;52.294;7.760;2022-08-01T04:19:08;99801.94;;;21.41;70.24
30021;BME280;16861;52.294;7.760;2022-08-01T04:21:35;99801.94;;;21.41;70.15
30021;BME280;16861;52.294;7.760;2022-08-01T04:24:11;99805.59;;;21.40;70.40
30021;BME280;16861;52.294;7.760;2022-08-01T04:26:41;99808.13;;;21.41;70.02
30021;BME280;16861;52.294;7.760;2022-08-01T04:29:09;99815.84;;;21.44;70.13
30021;BME280;16861;52.294;7.760;2022-08-01T04:31:38;99815.13;;;21.42;70.24
30021;BME280;16861;52.294;7.760;2022-08-01T04:34:08;99819.53;;;21.43;69.98
30021;BME280;16861;52.294;7.760;2022-08-01T04:36:36;99825.69;;;21.44;69.94
30021;BME280;16861;52.294;7.760;2022-08-01T04:39:05;99819.53;;;21.43;70.04
30021;BME280;16861;52.294;7.760;2022-08-01T04:41:33;99818.66;;;21.43;69.91
30021;BME280;16861;52.294;7.760;2022-08-01T04:44:00;99832.06;;;21.43;69.89
30021;BME280;16861;52.294;7.760;2022-08-01T04:46:28;99831.38;;;21.41;69.88
30021;BME280;16861;52.294;7.760;2022-08-01T04:48:56;99836.91;;;21.39;69.90
30021;BME280;16861;52.294;7.760;2022-08-01T04:51:23;99845.75;;;21.40;70.01
30021;BME280;16861;52.294;7.760;2022-08-01T04:53:49;99839.56;;;21.39;70.05
30021;BME280;16861;52.294;7.760;2022-08-01T04:56:19;99836.75;;;21.41;70.13
30021;BME280;16861;52.294;7.760;2022-08-01T04:58:48;99840.25;;;21.41;70.31
30021;BME280;16861;52.294;7.760;2022-08-01T05:01:48;99845.28;;;21.44;70.10
30021;BME280;16861;52.294;7.760;2022-08-01T05:04:15;99845.00;;;21.47;70.06
30021;BME280;16861;52.294;7.760;2022-08-01T05:06:42;99844.00;;;21.48;69.99
30021;BME280;16861;52.294;7.760;2022-08-01T05:09:09;99850.00;;;21.51;69.93
30021;BME280;16861;52.294;7.760;2022-08-01T05:11:35;99842.81;;;21.51;69.95
30021;BME280;16861;52.294;7.760;2022-08-01T05:14:02;99854.41;;;21.52;69.82
30021;BME280;16861;52.294;7.760;2022-08-01T05:16:28;99851.72;;;21.52;69.89
30021;BME280;16861;52.294;7.760;2022-08-01T05:18:55;99852.53;;;21.52;69.89
30021;BME280;16861;52.294;7.760;2022-08-01T05:21:22;99861.41;;;21.53;69.96
30021;BME280;16861;52.294;7.760;2022-08-01T05:23:48;99854.22;;;21.53;69.59
30021;BME280;16861;52.294;7.760;2022-08-01T05:26:15;99853.06;;;21.56;69.89
30021;BME280;16861;52.294;7.760;2022-08-01T05:28:42;99861.09;;;21.56;69.79
30021;BME280;16861;52.294;7.760;2022-08-01T05:31:08;99857.44;;;21.57;69.63
30021;BME280;16861;52.294;7.760;2022-08-01T05:33:35;99861.78;;;21.58;69.77
30021;BME280;16861;52.294;7.760;2022-08-01T05:36:02;99864.31;;;21.59;69.82
30021;BME280;16861;52.294;7.760;2022-08-01T05:38:29;99864.16;;;21.61;69.86
30021;BME280;16861;52.294;7.760;2022-08-01T05:40:55;99865.84;;;21.62;69.58
30021;BME280;16861;52.294;7.760;2022-08-01T05:43:22;99868.22;;;21.65;69.96
30021;BME280;16861;52.294;7.760;2022-08-01T05:45:54;99876.06;;;21.67;69.66
30021;BME280;16861;52.294;7.760;2022-08-01T05:48:21;99874.09;;;21.69;69.43
30021;BME280;16861;52.294;7.760;2022-08-01T05:50:47;99864.22;;;21.69;69.65
30021;BME280;16861;52.294;7.760;2022-08-01T05:53:14;99862.19;;;21.71;69.89
30021;BME280;16861;52.294;7.760;2022-08-01T05:55:40;99877.84;;;21.76;69.87
30021;BME280;16861;52.294;7.760;2022-08-01T05:58:07;99883.03;;;21.78;70.02
30021;BME280;16861;52.294;7.760;2022-08-01T06:00:37;99880.88;;;21.81;69.49
30021;BME280;16861;52.294;7.760;2022-08-01T06:03:04;99886.91;;;21.83;69.57
30021;BME280;16861;52.294;7.760;2022-08-01T06:05:31;99876.75;;;21.87;69.29
30021;BME280;16861;52.294;7.760;2022-08-01T06:07:57;99879.25;;;21.89;69.63
30021;BME280;16861;52.294;7.760;2022-08-01T06:10:24;99883.47;;;21.91;69.43
30021;BME280;16861;52.294;7.760;2022-08-01T06:12:51;99883.13;;;21.94;69.52
30021;BME280;16861;52.294;7.760;2022-08-01T06:15:17;99879.28;;;21.97;69.58
30021;BME280;16861;52.294;7.760;2022-08-01T06:17:44;99887.88;;;22.00;69.22
30021;BME280;16861;52.294;7.760;2022-08-01T06:20:11;99888.53;;;22.03;69.47
30021;BME280;16861;52.294;7.760;2022-08-01T06:22:38;99897.94;;;22.07;69.38
30021;BME280;16861;52.294;7.760;2022-08-01T06:25:06;99892.28;;;22.10;69.07
30021;BME280;16861;52.294;7.760;2022-08-01T06:27:36;99899.31;;;22.11;68.98
30021;BME280;16861;52.294;7.760;2022-08-01T06:30:04;99900.66;;;22.15;69.08
30021;BME280;16861;52.294;7.760;2022-08-01T06:32:31;99903.19;;;22.17;68.96
30021;BME280;16861;52.294;7.760;2022-08-01T06:34:58;99901.19;;;22.19;68.83
30021;BME280;16861;52.294;7.760;2022-08-01T06:37:28;99907.53;;;22.18;68.77
30021;BME280;16861;52.294;7.760;2022-08-01T06:39:55;99908.25;;;22.20;68.69
30021;BME280;16861;52.294;7.760;2022-08-01T06:42:22;99900.00;;;22.21;68.79
30021;BME280;16861;52.294;7.760;2022-08-01T06:44:50;99906.06;;;22.23;68.60
30021;BME280;16861;52.294;7.760;2022-08-01T06:47:16;99907.09;;;22.22;68.48
30021;BME280;16861;52.294;7.760;2022-08-01T06:49:43;99898.03;;;22.23;68.54
30021;BME280;16861;52.294;7.760;2022-08-01T06:52:09;99906.91;;;22.24;68.59
30021;BME280;16861;52.294;7.760;2022-08-01T06:54:36;99911.44;;;22.23;68.05
30021;BME280;16861;52.294;7.760;2022-08-01T06:57:06;99910.91;;;22.20;67.41
30021;BME280;16861;52.294;7.760;2022-08-01T06:59:33;99912.75;;;22.19;67.56
30021;BME280;16861;52.294;7.760;2022-08-01T07:01:59;99922.81;;;22.17;67.52
30021;BME280;16861;52.294;7.760;2022-08-01T07:04:27;99922.13;;;22.15;67.56
30021;BME280;16861;52.294;7.760;2022-08-01T07:06:54;99923.28;;;22.12;67.35
30021;BME280;16861;52.294;7.760;2022-08-01T07:09:21;99919.91;;;22.10;67.09
30021;BME280;16861;52.294;7.760;2022-08-01T07:11:48;99914.88;;;22.07;67.34
30021;BME280;16861;52.294;7.760;2022-08-01T07:14:14;99920.53;;;22.04;67.02
30021;BME280;16861;52.294;7.760;2022-08-01T07:16:41;99916.34;;;22.02;67.32
30021;BME280;16861;52.294;7.760;2022-08-01T07:19:08;99917.50;;;21.99;67.30
30021;BME280;16861;52.294;7.760;2022-08-01T07:21:34;99914.97;;;21.97;67.44
30021;BME280;16861;52.294;7.760;2022-08-01T07:24:08;99911.63;;;21.95;67.41
30021;BME280;16861;52.294;7.760;2022-08-01T07:26:43;99911.63;;;21.95;67.66
30021;BME280;16861;52.294;7.760;2022-08-01T07:29:23;99919.69;;;21.95;67.51
30021;BME280;16861;52.294;7.760;2022-08-01T07:31:55;99922.16;;;21.97;67.92
30021;BME280;16861;52.294;7.760;2022-08-01T07:34:22;99925.41;;;22.00;68.24
30021;BME280;16861;52.294;7.760;2022-08-01T07:36:50;99931.41;;;22.03;68.34
30021;BME280;16861;52.294;7.760;2022-08-01T07:39:17;99931.78;;;22.08;68.33
30021;BME280;16861;52.294;7.760;2022-08-01T07:41:44;99939.34;;;22.12;68.09
30021;BME280;16861;52.294;7.760;2022-08-01T07:44:31;99935.22;;;22.18;67.91
30021;BME280;16861;52.294;7.760;2022-08-01T07:46:57;99942.91;;;22.21;67.85
30021;BME280;16861;52.294;7.760;2022-08-01T07:49:24;99947.97;;;22.24;67.48
30021;BME280;16861;52.294;7.760;2022-08-01T07:51:51;99936.94;;;22.28;67.41
30021;BME280;16861;52.294;7.760;2022-08-01T07:54:38;99942.81;;;22.31;67.47
30021;BME280;16861;52.294;7.760;2022-08-01T07:57:04;99948.00;;;22.33;66.94
30021;BME280;16861;52.294;7.760;2022-08-01T07:59:31;99954.06;;;22.35;67.11
30021;BME280;16861;52.294;7.760;2022-08-01T08:01:58;99957.25;;;22.38;66.62
30021;BME280;16861;52.294;7.760;2022-08-01T08:04:26;99961.47;;;22.41;66.57
30021;BME280;16861;52.294;7.760;2022-08-01T08:06:53;99961.66;;;22.48;66.37
30021;BME280;16861;52.294;7.760;2022-08-01T08:09:20;99961.34;;;22.51;66.73
30021;BME280;16861;52.294;7.760;2022-08-01T08:11:47;99960.88;;;22.56;66.48
30021;BME280;16861;52.294;7.760;2022-08-01T08:14:16;99964.25;;;22.58;66.19
30021;BME280;16861;52.294;7.760;2022-08-01T08:16:43;99967.28;;;22.63;66.16
30021;BME280;16861;52.294;7.760;2022-08-01T08:19:11;99973.16;;;22.67;66.21
30021;BME280;16861;52.294;7.760;2022-08-01T08:21:38;99967.31;;;22.71;66.63
30021;BME280;16861;52.294;7.760;2022-08-01T08:24:06;99973.72;;;22.78;66.59
30021;BME280;16861;52.294;7.760;2022-08-01T08:26:59;99972.06;;;22.86;65.53
30021;BME280;16861;52.294;7.760;2022-08-01T08:29:28;99970.25;;;22.95;66.06
30021;BME280;16861;52.294;7.760;2022-08-01T08:31:57;99979.31;;;23.02;65.90
30021;BME280;16861;52.294;7.760;2022-08-01T08:34:25;99977.50;;;23.11;65.78
30021;BME280;16861;52.294;7.760;2022-08-01T08:36:52;99985.75;;;23.17;65.19
30021;BME280;16861;52.294;7.760;2022-08-01T08:39:19;99975.34;;;23.23;64.81
30021;BME280;16861;52.294;7.760;2022-08-01T08:41:47;99977.69;;;23.26;64.64
30021;BME280;16861;52.294;7.760;2022-08-01T08:44:16;99985.44;;;23.29;64.45
30021;BME280;16861;52.294;7.760;2022-08-01T08:46:46;99986.94;;;23.32;64.38
30021;BME280;16861;52.294;7.760;2022-08-01T08:49:18;99990.16;;;23.35;64.17
30021;BME280;16861;52.294;7.760;2022-08-01T08:51:48;99980.75;;;23.39;64.00
30021;BME280;16861;52.294;7.760;2022-08-01T08:54:17;99992.84;;;23.43;63.55
30021;BME280;16861;52.294;7.760;2022-08-01T08:56:47;99994.69;;;23.43;63.39
30021;BME280;16861;52.294;7.760;2022-08-01T08:59:15;99989.69;;;23.40;63.22
30021;BME280;16861;52.294;7.760;2022-08-01T09:01:42;99989.16;;;23.36;62.90
30021;BME280;16861;52.294;7.760;2022-08-01T09:04:10;100002.03;;;23.33;63.21
30021;BME280;16861;52.294;7.760;2022-08-01T09:06:38;99998.66;;;23.30;63.22
30021;BME280;16861;52.294;7.760;2022-08-01T09:09:06;99998.50;;;23.32;64.19
30021;BME280;16861;52.294;7.760;2022-08-01T09:11:34;99997.91;;;23.38;65.15
30021;BME280;16861;52.294;7.760;2022-08-01T09:16:43;100007.66;;;23.64;64.84
30021;BME280;16861;52.294;7.760;2022-08-01T09:19:15;100002.09;;;23.74;64.95
30021;BME280;16861;52.294;7.760;2022-08-01T09:22:04;100016.22;;;23.93;62.44
30021;BME280;16861;52.294;7.760;2022-08-01T09:24:32;100019.25;;;23.98;62.13
30021;BME280;16861;52.294;7.760;2022-08-01T09:27:00;100022.59;;;24.00;62.31
30021;BME280;16861;52.294;7.760;2022-08-01T09:29:30;100027.63;;;24.03;62.09
30021;BME280;16861;52.294;7.760;2022-08-01T09:32:05;100026.28;;;24.07;61.64
30021;BME280;16861;52.294;7.760;2022-08-01T09:34:33;100028.50;;;24.12;61.92
30021;BME280;16861;52.294;7.760;2022-08-01T09:37:01;100023.63;;;24.16;62.09
30021;BME280;16861;52.294;7.760;2022-08-01T09:39:34;100031.00;;;24.22;61.76
30021;BME280;16861;52.294;7.760;2022-08-01T09:42:21;100034.69;;;24.29;62.07
30021;BME280;16861;52.294;7.760;2022-08-01T09:44:54;100030.28;;;24.45;61.94
30021;BME280;16861;52.294;7.760;2022-08-01T09:47:21;100036.84;;;24.51;61.13
30021;BME280;16861;52.294;7.760;2022-08-01T09:49:56;100040.19;;;24.53;60.06
30021;BME280;16861;52.294;7.760;2022-08-01T09:52:26;100043.38;;;24.56;59.96
30021;BME280;16861;52.294;7.760;2022-08-01T09:55:02;100049.75;;;24.55;59.61
30021;BME280;16861;52.294;7.760;2022-08-01T09:57:29;100052.47;;;24.55;60.16
30021;BME280;16861;52.294;7.760;2022-08-01T09:59:58;100045.06;;;24.57;60.34
30021;BME280;16861;52.294;7.760;2022-08-01T10:04:54;100034.25;;;24.66;60.24
30021;BME280;16861;52.294;7.760;2022-08-01T10:07:29;100034.59;;;24.71;60.19
30021;BME280;16861;52.294;7.760;2022-08-01T10:10:14;100042.63;;;24.79;59.82
30021;BME280;16861;52.294;7.760;2022-08-01T10:12:42;100036.88;;;24.91;60.38
30021;BME280;16861;52.294;7.760;2022-08-01T10:15:14;100034.84;;;25.01;59.46
30021;BME280;16861;52.294;7.760;2022-08-01T10:17:53;100037.13;;;25.13;58.89
30021;BME280;16861;52.294;7.760;2022-08-01T10:20:30;100041.94;;;25.26;57.91
30021;BME280;16861;52.294;7.760;2022-08-01T10:23:00;100047.59;;;25.39;58.09
30021;BME280;16861;52.294;7.760;2022-08-01T10:25:37;100045.66;;;25.48;56.84
30021;BME280;16861;52.294;7.760;2022-08-01T10:28:17;100046.63;;;25.55;56.31
30021;BME280;16861;52.294;7.760;2022-08-01T10:30:47;100048.28;;;25.65;57.21
30021;BME280;16861;52.294;7.760;2022-08-01T10:33:15;100052.28;;;25.69;56.53
30021;BME280;16861;52.294;7.760;2022-08-01T10:36:02;100050.75;;;25.74;56.55
30021;BME280;16861;52.294;7.760;2022-08-01T10:38:34;100060.31;;;25.77;56.49
30021;BME280;16861;52.294;7.760;2022-08-01T10:41:04;100051.22;;;25.78;55.83
30021;BME280;16861;52.294;7.760;2022-08-01T10:43:34;100050.84;;;25.81;56.60
30021;BME280;16861;52.294;7.760;2022-08-01T10:46:04;100051.69;;;25.82;56.12
30021;BME280;16861;52.294;7.760;2022-08-01T10:48:53;100058.38;;;25.86;56.06
30021;BME280;16861;52.294;7.760;2022-08-01T10:51:22;100062.03;;;25.93;55.82
30021;BME280;16861;52.294;7.760;2022-08-01T10:54:10;100053.88;;;26.01;55.64
30021;BME280;16861;52.294;7.760;2022-08-01T10:56:49;100055.38;;;26.04;53.69
30021;BME280;16861;52.294;7.760;2022-08-01T10:59:21;100044.69;;;26.11;52.28
30021;BME280;16861;52.294;7.760;2022-08-01T11:02:08;100059.97;;;26.19;54.05
30021;BME280;16861;52.294;7.760;2022-08-01T11:04:53;100057.66;;;26.15;52.98
30021;BME280;16861;52.294;7.760;2022-08-01T11:07:22;100063.97;;;26.23;53.56
30021;BME280;16861;52.294;7.760;2022-08-01T11:10:14;100062.47;;;26.20;53.55
30021;BME280;16861;52.294;7.760;2022-08-01T11:12:43;100061.22;;;26.31;52.86
30021;BME280;16861;52.294;7.760;2022-08-01T11:17:40;100058.53;;;26.46;52.75
30021;BME280;16861;52.294;7.760;2022-08-01T11:20:26;100067.69;;;26.60;53.38
30021;BME280;16861;52.294;7.760;2022-08-01T11:28:24;100062.09;;;27.07;51.57
30021;BME280;16861;52.294;7.760;2022-08-01T11:39:30;100072.19;;;27.35;49.66
30021;BME280;16861;52.294;7.760;2022-08-01T11:41:40;100062.22;;;27.36;49.33
30021;BME280;16861;52.294;7.760;2022-08-01T11:44:11;100062.13;;;27.29;48.44
30021;BME280;16861;52.294;7.760;2022-08-01T11:46:46;100073.06;;;27.21;51.05
30021;BME280;16861;52.294;7.760;2022-08-01T11:52:29;100063.31;;;27.04;48.67
30021;BME280;16861;52.294;7.760;2022-08-01T11:55:03;100065.91;;;27.13;50.10
30021;BME280;16861;52.294;7.760;2022-08-01T11:57:35;100071.19;;;27.21;50.86
30021;BME280;16861;52.294;7.760;2022-08-01T12:00:11;100067.63;;;27.36;50.27
30021;BME280;16861;52.294;7.760;2022-08-01T12:02:43;100071.72;;;27.68;52.38
30021;BME280;16861;52.294;7.760;2022-08-01T12:05:13;100070.84;;;28.12;51.30
30021;BME280;16861;52.294;7.760;2022-08-01T12:07:42;100063.91;;;28.59;51.14
30021;BME280;16861;52.294;7.760;2022-08-01T12:10:14;100071.69;;;29.05;47.53
30021;BME280;16861;52.294;7.760;2022-08-01T12:13:00;100068.25;;;29.45;51.77
30021;BME280;16861;52.294;7.760;2022-08-01T12:15:33;100063.97;;;30.04;47.70
30021;BME280;16861;52.294;7.760;2022-08-01T12:18:02;100059.34;;;30.46;47.62
30021;BME280;16861;52.294;7.760;2022-08-01T12:20:35;100054.91;;;30.72;44.24
30021;BME280;16861;52.294;7.760;2022-08-01T12:23:07;100060.91;;;30.87;43.99
30021;BME280;16861;52.294;7.760;2022-08-01T12:25:35;100056.94;;;30.90;43.90
30021;BME280;16861;52.294;7.760;2022-08-01T12:28:04;100065.09;;;30.90;43.36
30021;BME280;16861;52.294;7.760;2022-08-01T12:30:32;100067.19;;;30.88;43.20
30021;BME280;16861;52.294;7.760;2022-08-01T12:33:07;100068.25;;;30.87;42.90
30021;BME280;16861;52.294;7.760;2022-08-01T12:35:35;100069.50;;;30.91;44.62
30021;BME280;16861;52.294;7.760;2022-08-01T12:38:13;100074.44;;;31.01;43.48
30021;BME280;16861;52.294;7.760;2022-08-01T12:40:41;100073.97;;;31.17;44.40
30021;BME280;16861;52.294;7.760;2022-08-01T12:43:16;100071.16;;;31.38;43.07
30021;BME280;16861;52.294;7.760;2022-08-01T12:45:54;100061.38;;;31.62;43.34
30021;BME280;16861;52.294;7.760;2022-08-01T12:48:23;100065.84;;;31.82;42.12
30021;BME280;16861;52.294;7.760;2022-08-01T12:50:51;100063.28;;;31.94;42.21
30021;BME280;16861;52.294;7.760;2022-08-01T12:53:19;100062.41;;;32.00;41.83
30021;BME280;16861;52.294;7.760;2022-08-01T12:55:54;100070.56;;;32.00;41.41
30021;BME280;16861;52.294;7.760;2022-08-01T12:58:30;100077.28;;;31.97;39.94
30021;BME280;16861;52.294;7.760;2022-08-01T13:01:09;100070.03;;;31.84;40.79
30021;BME280;16861;52.294;7.760;2022-08-01T13:03:37;100072.41;;;31.74;40.06
30021;BME280;16861;52.294;7.760;2022-08-01T13:06:12;100070.47;;;31.49;39.79
30021;BME280;16861;52.294;7.760;2022-08-01T13:08:42;100067.47;;;31.32;39.43
30021;BME280;16861;52.294;7.760;2022-08-01T13:11:14;100071.09;;;31.05;39.56
30021;BME280;16861;52.294;7.760;2022-08-01T13:13:44;100075.16;;;30.83;39.78
30021;BME280;16861;52.294;7.760;2022-08-01T13:16:15;100080.00;;;30.60;40.61
30021;BME280;16861;52.294;7.760;2022-08-01T13:19:02;100074.22;;;30.36;40.38
30021;BME280;16861;52.294;7.760;2022-08-01T13:21:31;100075.47;;;30.20;40.71
30021;BME280;16861;52.294;7.760;2022-08-01T13:24:25;100082.31;;;30.02;41.41
30021;BME280;16861;52.294;7.760;2022-08-01T13:26:54;100078.16;;;29.93;41.07
30021;BME280;16861;52.294;7.760;2022-08-01T13:29:37;100086.28;;;29.80;41.01
30021;BME280;16861;52.294;7.760;2022-08-01T13:32:19;100081.03;;;29.64;41.45
30021;BME280;16861;52.294;7.760;2022-08-01T13:35:06;100075.16;;;29.47;40.64
30021;BME280;16861;52.294;7.760;2022-08-01T13:37:34;100079.06;;;29.31;40.96
30021;BME280;16861;52.294;7.760;2022-08-01T13:40:05;100087.97;;;29.11;41.25
30021;BME280;16861;52.294;7.760;2022-08-01T13:42:33;100080.38;;;28.93;41.74
30021;BME280;16861;52.294;7.760;2022-08-01T13:45:03;100075.06;;;28.78;42.12
30021;BME280;16861;52.294;7.760;2022-08-01T13:47:40;100075.84;;;28.65;42.40
30021;BME280;16861;52.294;7.760;2022-08-01T13:50:27;100076.19;;;28.55;42.31
30021;BME280;16861;52.294;7.760;2022-08-01T13:52:54;100074.66;;;28.46;42.21